createdAt,value
2022-11-12T00:00:00.161Z,102920
2022-11-12T00:01:00.377Z,102920
2022-11-12T00:02:00.271Z,102920
2022-11-12T00:03:00.337Z,102920
2022-11-12T00:04:00.159Z,102920
2022-11-12T00:05:00.156Z,102920
2022-11-12T00:06:00.156Z,102920
2022-11-12T00:07:00.413Z,102910
2022-11-12T00:08:00.216Z,102910
2022-11-12T00:09:00.157Z,102910
2022-11-12T00:10:00.167Z,102910
2022-11-12T00:11:00.160Z,102920
2022-11-12T00:12:00.160Z,102920
2022-11-12T00:13:00.162Z,102920
2022-11-12T00:14:00.166Z,102920
2022-11-12T00:15:00.163Z,102920
2022-11-12T00:16:00.188Z,102920
2022-11-12T00:17:00.157Z,102930
2022-11-12T00:18:00.163Z,102930
2022-11-12T00:19:00.166Z,102920
2022-11-12T00:20:00.366Z,102920
2022-11-12T00:21:00.165Z,102930
2022-11-12T00:22:00.154Z,102930
2022-11-12T00:23:00.415Z,102930
2022-11-12T00:24:00.204Z,102930
2022-11-12T00:25:00.217Z,102930
2022-11-12T00:26:00.501Z,102930
2022-11-12T00:27:00.147Z,102930
2022-11-12T00:28:00.952Z,102930
2022-11-12T00:29:00.148Z,102920
2022-11-12T00:30:00.483Z,102920
2022-11-12T00:31:05.498Z,102930
2022-11-12T00:32:00.223Z,102930
2022-11-12T00:33:00.940Z,102930
2022-11-12T00:34:00.336Z,102930
2022-11-12T00:35:02.611Z,102930
2022-11-12T00:36:00.172Z,102930
2022-11-12T00:37:00.597Z,102930
2022-11-12T00:38:00.389Z,102930
2022-11-12T00:39:00.157Z,102930
2022-11-12T00:40:00.169Z,102930
2022-11-12T00:41:00.431Z,102930
2022-11-12T00:42:00.178Z,102930
2022-11-12T00:43:00.230Z,102930
2022-11-12T00:44:00.162Z,102930
2022-11-12T00:45:00.160Z,102920
2022-11-12T00:46:00.152Z,102920
2022-11-12T00:47:00.163Z,102920
2022-11-12T00:48:00.153Z,102920
2022-11-12T00:49:00.160Z,102920
2022-11-12T00:50:00.158Z,102920
2022-11-12T00:51:02.273Z,102920
2022-11-12T00:52:00.159Z,102920
2022-11-12T00:53:00.178Z,102920
2022-11-12T00:54:00.243Z,102920
2022-11-12T00:55:00.159Z,102920
2022-11-12T00:56:03.114Z,102920
2022-11-12T00:57:00.166Z,102920
2022-11-12T00:58:00.164Z,102920
2022-11-12T00:59:00.178Z,102920
2022-11-12T01:00:00.187Z,102920
2022-11-12T01:01:04.368Z,102920
2022-11-12T01:02:00.165Z,102920
2022-11-12T01:03:00.168Z,102930
2022-11-12T01:04:00.248Z,102930
2022-11-12T01:05:00.154Z,102920
2022-11-12T01:06:00.867Z,102920
2022-11-12T01:07:00.210Z,102920
2022-11-12T01:08:00.148Z,102920
2022-11-12T01:09:00.176Z,102910
2022-11-12T01:10:00.159Z,102910
2022-11-12T01:11:04.215Z,102920
2022-11-12T01:12:00.163Z,102920
2022-11-12T01:13:00.159Z,102910
2022-11-12T01:14:01.542Z,102910
2022-11-12T01:15:00.455Z,102910
2022-11-12T01:16:04.079Z,102910
2022-11-12T01:17:00.161Z,102920
2022-11-12T01:18:00.157Z,102920
2022-11-12T01:19:00.974Z,102920
2022-11-12T01:20:00.203Z,102920
2022-11-12T01:21:00.695Z,102920
2022-11-12T01:22:00.156Z,102920
2022-11-12T01:23:00.153Z,102920
2022-11-12T01:24:00.384Z,102920
2022-11-12T01:25:00.172Z,102920
2022-11-12T01:26:03.804Z,102920
2022-11-12T01:27:00.151Z,102910
2022-11-12T01:28:00.152Z,102910
2022-11-12T01:29:00.175Z,102920
2022-11-12T01:30:00.187Z,102920
2022-11-12T01:31:10.091Z,102910
2022-11-12T01:32:00.155Z,102910
2022-11-12T01:33:00.162Z,102900
2022-11-12T01:34:01.235Z,102900
2022-11-12T01:35:00.176Z,102900
2022-11-12T01:36:00.169Z,102900
2022-11-12T01:37:00.162Z,102900
2022-11-12T01:38:00.169Z,102900
2022-11-12T01:39:00.181Z,102900
2022-11-12T01:40:00.185Z,102900
2022-11-12T01:41:00.172Z,102900
2022-11-12T01:42:00.162Z,102900
2022-11-12T01:43:00.179Z,102900
2022-11-12T01:44:10.091Z,102900
2022-11-12T01:45:00.193Z,102900
2022-11-12T01:46:01.878Z,102900
2022-11-12T01:47:05.285Z,102900
2022-11-12T01:48:00.921Z,102900
2022-11-12T01:49:01.811Z,102900
2022-11-12T01:50:00.959Z,102900
2022-11-12T01:51:01.738Z,102900
2022-11-12T01:52:07.389Z,102900
2022-11-12T01:53:03.066Z,102900
2022-11-12T01:54:02.766Z,102900
2022-11-12T01:55:04.275Z,102890
2022-11-12T01:56:02.272Z,102890
2022-11-12T01:57:00.878Z,102890
2022-11-12T01:58:10.098Z,102890
2022-11-12T01:59:03.307Z,102890
2022-11-12T02:00:03.110Z,102890
2022-11-12T02:01:01.082Z,102890
2022-11-12T02:02:00.269Z,102890
2022-11-12T02:03:01.449Z,102900
2022-11-12T02:04:00.301Z,102900
2022-11-12T02:05:01.102Z,102900
2022-11-12T02:06:03.714Z,102900
2022-11-12T02:07:01.883Z,102890
2022-11-12T02:08:01.419Z,102890
2022-11-12T02:09:00.239Z,102900
2022-11-12T02:10:00.991Z,102900
2022-11-12T02:11:10.097Z,102900
2022-11-12T02:12:00.214Z,102900
2022-11-12T02:13:00.510Z,102900
2022-11-12T02:14:00.302Z,102900
2022-11-12T02:15:00.369Z,102890
2022-11-12T02:16:00.470Z,102890
2022-11-12T02:17:00.224Z,102890
2022-11-12T02:18:00.179Z,102890
2022-11-12T02:19:00.677Z,102890
2022-11-12T02:20:00.192Z,102890
2022-11-12T02:21:03.695Z,102890
2022-11-12T02:22:00.185Z,102890
2022-11-12T02:23:00.231Z,102890
2022-11-12T02:24:10.120Z,102890
2022-11-12T02:25:00.179Z,102890
2022-11-12T02:26:00.210Z,102890
2022-11-12T02:27:00.398Z,102890
2022-11-12T02:28:01.373Z,102890
2022-11-12T02:29:00.542Z,102890
2022-11-12T02:30:00.160Z,102890
2022-11-12T02:31:00.172Z,102890
2022-11-12T02:32:00.177Z,102890
2022-11-12T02:33:00.183Z,102890
2022-11-12T02:34:00.165Z,102890
2022-11-12T02:35:00.162Z,102890
2022-11-12T02:36:00.196Z,102890
2022-11-12T02:37:00.166Z,102890
2022-11-12T02:38:00.273Z,102890
2022-11-12T02:39:00.374Z,102900
2022-11-12T02:40:00.186Z,102900
2022-11-12T02:41:00.166Z,102900
2022-11-12T02:42:00.178Z,102900
2022-11-12T02:43:00.196Z,102900
2022-11-12T02:44:00.195Z,102900
2022-11-12T02:45:00.281Z,102890
2022-11-12T02:46:00.191Z,102890
2022-11-12T02:47:00.174Z,102890
2022-11-12T02:48:00.583Z,102890
2022-11-12T02:49:00.164Z,102890
2022-11-12T02:50:00.183Z,102890
2022-11-12T02:51:00.309Z,102890
2022-11-12T02:52:00.230Z,102890
2022-11-12T02:53:00.162Z,102890
2022-11-12T02:54:00.173Z,102890
2022-11-12T02:55:00.184Z,102900
2022-11-12T02:56:00.337Z,102900
2022-11-12T02:57:00.157Z,102890
2022-11-12T02:58:00.165Z,102890
2022-11-12T02:59:00.254Z,102880
2022-11-12T03:00:00.166Z,102880
2022-11-12T03:01:00.232Z,102870
2022-11-12T03:02:00.155Z,102870
2022-11-12T03:03:00.171Z,102870
2022-11-12T03:04:00.154Z,102870
2022-11-12T03:05:00.165Z,102870
2022-11-12T03:06:00.485Z,102870
2022-11-12T03:07:00.239Z,102880
2022-11-12T03:08:01.276Z,102880
2022-11-12T03:09:00.154Z,102880
2022-11-12T03:10:00.180Z,102880
2022-11-12T03:11:04.897Z,102870
2022-11-12T03:12:00.182Z,102870
2022-11-12T03:13:00.749Z,102880
2022-11-12T03:14:00.663Z,102880
2022-11-12T03:15:00.183Z,102880
2022-11-12T03:16:00.468Z,102880
2022-11-12T03:17:00.156Z,102870
2022-11-12T03:18:00.170Z,102870
2022-11-12T03:19:00.153Z,102870
2022-11-12T03:20:00.185Z,102870
2022-11-12T03:21:00.482Z,102880
2022-11-12T03:22:00.152Z,102880
2022-11-12T03:23:01.616Z,102880
2022-11-12T03:24:00.537Z,102880
2022-11-12T03:25:00.159Z,102880
2022-11-12T03:26:02.149Z,102880
2022-11-12T03:27:00.154Z,102880
2022-11-12T03:28:01.581Z,102880
2022-11-12T03:29:00.177Z,102880
2022-11-12T03:30:00.339Z,102880
2022-11-12T03:31:00.166Z,102880
2022-11-12T03:32:00.145Z,102880
2022-11-12T03:33:00.199Z,102880
2022-11-12T03:34:00.271Z,102880
2022-11-12T03:35:00.163Z,102880
2022-11-12T03:36:00.176Z,102880
2022-11-12T03:37:00.150Z,102880
2022-11-12T03:38:00.640Z,102880
2022-11-12T03:39:00.148Z,102890
2022-11-12T03:40:00.155Z,102890
2022-11-12T03:41:00.167Z,102880
2022-11-12T03:42:00.163Z,102880
2022-11-12T03:43:00.147Z,102880
2022-11-12T03:44:00.145Z,102880
2022-11-12T03:45:00.152Z,102880
2022-11-12T03:46:00.162Z,102880
2022-11-12T03:47:00.178Z,102880
2022-11-12T03:48:00.168Z,102880
2022-11-12T03:49:00.147Z,102880
2022-11-12T03:50:00.153Z,102880
2022-11-12T03:51:00.154Z,102880
2022-11-12T03:52:00.162Z,102880
2022-11-12T03:53:00.146Z,102890
2022-11-12T03:54:00.182Z,102890
2022-11-12T03:55:00.158Z,102890
2022-11-12T03:56:00.157Z,102890
2022-11-12T03:57:00.152Z,102890
2022-11-12T03:58:00.166Z,102890
2022-11-12T03:59:00.189Z,102890
2022-11-12T04:00:00.184Z,102890
2022-11-12T04:01:00.228Z,102880
2022-11-12T04:02:00.165Z,102880
2022-11-12T04:03:00.155Z,102890
2022-11-12T04:04:00.155Z,102890
2022-11-12T04:05:00.162Z,102880
2022-11-12T04:06:00.159Z,102880
2022-11-12T04:07:00.200Z,102880
2022-11-12T04:08:01.210Z,102880
2022-11-12T04:09:00.167Z,102890
2022-11-12T04:10:00.192Z,102890
2022-11-12T04:11:01.169Z,102890
2022-11-12T04:12:00.156Z,102890
2022-11-12T04:13:00.162Z,102880
2022-11-12T04:14:00.212Z,102880
2022-11-12T04:15:00.149Z,102880
2022-11-12T04:16:00.133Z,102880
2022-11-12T04:17:00.161Z,102890
2022-11-12T04:18:00.158Z,102890
2022-11-12T04:19:00.976Z,102880
2022-11-12T04:20:00.166Z,102880
2022-11-12T04:21:00.149Z,102880
2022-11-12T04:22:03.027Z,102880
2022-11-12T04:23:00.164Z,102880
2022-11-12T04:24:00.158Z,102880
2022-11-12T04:25:00.149Z,102880
2022-11-12T04:26:00.155Z,102880
2022-11-12T04:27:00.276Z,102880
2022-11-12T04:28:00.154Z,102880
2022-11-12T04:29:00.147Z,102880
2022-11-12T04:30:00.162Z,102880
2022-11-12T04:31:00.155Z,102870
2022-11-12T04:32:00.147Z,102870
2022-11-12T04:33:00.153Z,102870
2022-11-12T04:34:00.236Z,102870
2022-11-12T04:35:00.790Z,102870
2022-11-12T04:36:00.155Z,102870
2022-11-12T04:37:02.396Z,102870
2022-11-12T04:38:00.155Z,102870
2022-11-12T04:39:00.193Z,102870
2022-11-12T04:40:00.161Z,102870
2022-11-12T04:41:00.155Z,102870
2022-11-12T04:42:00.342Z,102870
2022-11-12T04:43:00.911Z,102870
2022-11-12T04:44:00.162Z,102870
2022-11-12T04:45:00.178Z,102860
2022-11-12T04:46:01.402Z,102860
2022-11-12T04:47:00.167Z,102860
2022-11-12T04:48:00.162Z,102860
2022-11-12T04:49:00.167Z,102860
2022-11-12T04:50:00.731Z,102860
2022-11-12T04:51:01.300Z,102860
2022-11-12T04:52:00.155Z,102860
2022-11-12T04:53:00.155Z,102860
2022-11-12T04:54:00.180Z,102860
2022-11-12T04:55:00.173Z,102860
2022-11-12T04:56:00.161Z,102860
2022-11-12T04:57:00.194Z,102860
2022-11-12T04:58:00.979Z,102860
2022-11-12T04:59:00.153Z,102860
2022-11-12T05:00:00.161Z,102860
2022-11-12T05:01:00.213Z,102860
2022-11-12T05:02:00.154Z,102860
2022-11-12T05:03:00.364Z,102860
2022-11-12T05:04:00.155Z,102860
2022-11-12T05:05:00.154Z,102860
2022-11-12T05:06:01.108Z,102860
2022-11-12T05:07:00.381Z,102850
2022-11-12T05:08:00.846Z,102850
2022-11-12T05:09:00.158Z,102850
2022-11-12T05:10:00.180Z,102850
2022-11-12T05:11:00.157Z,102850
2022-11-12T05:12:00.618Z,102850
2022-11-12T05:13:00.161Z,102850
2022-11-12T05:14:00.159Z,102850
2022-11-12T05:15:00.213Z,102850
2022-11-12T05:16:00.160Z,102850
2022-11-12T05:17:00.354Z,102850
2022-11-12T05:18:00.158Z,102850
2022-11-12T05:19:00.202Z,102840
2022-11-12T05:20:00.171Z,102840
2022-11-12T05:21:00.145Z,102840
2022-11-12T05:22:00.193Z,102840
2022-11-12T05:23:06.819Z,102840
2022-11-12T05:24:00.158Z,102840
2022-11-12T05:25:00.208Z,102830
2022-11-12T05:26:00.157Z,102830
2022-11-12T05:27:00.506Z,102840
2022-11-12T05:28:00.160Z,102840
2022-11-12T05:29:00.158Z,102840
2022-11-12T05:30:00.382Z,102840
2022-11-12T05:31:00.154Z,102840
2022-11-12T05:32:00.477Z,102840
2022-11-12T05:33:00.156Z,102840
2022-11-12T05:34:00.169Z,102840
2022-11-12T05:35:00.163Z,102830
2022-11-12T05:36:00.151Z,102830
2022-11-12T05:37:02.443Z,102830
2022-11-12T05:38:00.149Z,102830
2022-11-12T05:39:00.178Z,102830
2022-11-12T05:40:00.186Z,102830
2022-11-12T05:41:00.145Z,102830
2022-11-12T05:42:13.547Z,102830
2022-11-12T05:43:00.149Z,102830
2022-11-12T05:44:00.191Z,102830
2022-11-12T05:45:00.165Z,102830
2022-11-12T05:46:00.151Z,102830
2022-11-12T05:47:00.165Z,102830
2022-11-12T05:48:00.159Z,102830
2022-11-12T05:49:00.152Z,102830
2022-11-12T05:50:00.160Z,102830
2022-11-12T05:51:13.067Z,102820
2022-11-12T05:52:00.170Z,102820
2022-11-12T05:53:00.220Z,102820
2022-11-12T05:54:00.289Z,102820
2022-11-12T05:55:00.154Z,102820
2022-11-12T05:56:01.027Z,102820
2022-11-12T05:57:00.161Z,102830
2022-11-12T05:58:03.383Z,102830
2022-11-12T05:59:00.793Z,102840
2022-11-12T06:00:00.179Z,102840
2022-11-12T06:01:00.596Z,102840
2022-11-12T06:02:00.255Z,102840
2022-11-12T06:03:00.207Z,102830
2022-11-12T06:04:00.471Z,102830
2022-11-12T06:05:00.184Z,102830
2022-11-12T06:06:00.185Z,102830
2022-11-12T06:07:00.236Z,102830
2022-11-12T06:08:00.535Z,102830
2022-11-12T06:09:00.166Z,102830
2022-11-12T06:10:00.188Z,102830
2022-11-12T06:11:00.160Z,102840
2022-11-12T06:12:00.155Z,102840
2022-11-12T06:13:00.158Z,102830
2022-11-12T06:14:00.631Z,102830
2022-11-12T06:15:00.157Z,102830
2022-11-12T06:16:00.167Z,102830
2022-11-12T06:17:00.160Z,102830
2022-11-12T06:18:00.161Z,102830
2022-11-12T06:19:00.171Z,102830
2022-11-12T06:20:00.170Z,102830
2022-11-12T06:21:02.389Z,102840
2022-11-12T06:22:00.188Z,102840
2022-11-12T06:23:00.198Z,102840
2022-11-12T06:24:00.172Z,102840
2022-11-12T06:25:00.304Z,102840
2022-11-12T06:26:00.556Z,102840
2022-11-12T06:27:00.146Z,102840
2022-11-12T06:28:00.241Z,102840
2022-11-12T06:29:00.167Z,102850
2022-11-12T06:30:00.266Z,102850
2022-11-12T06:31:00.152Z,102850
2022-11-12T06:32:00.150Z,102850
2022-11-12T06:33:00.169Z,102850
2022-11-12T06:34:00.166Z,102850
2022-11-12T06:35:00.237Z,102850
2022-11-12T06:36:01.452Z,102850
2022-11-12T06:37:00.155Z,102850
2022-11-12T06:38:00.215Z,102850
2022-11-12T06:39:00.155Z,102850
2022-11-12T06:40:00.155Z,102850
2022-11-12T06:41:00.161Z,102850
2022-11-12T06:42:00.156Z,102850
2022-11-12T06:43:00.148Z,102850
2022-11-12T06:44:02.242Z,102850
2022-11-12T06:45:00.164Z,102850
2022-11-12T06:46:01.193Z,102850
2022-11-12T06:47:00.599Z,102850
2022-11-12T06:48:00.168Z,102850
2022-11-12T06:49:00.161Z,102850
2022-11-12T06:50:00.192Z,102850
2022-11-12T06:51:05.111Z,102850
2022-11-12T06:52:00.163Z,102850
2022-11-12T06:53:00.157Z,102850
2022-11-12T06:54:00.150Z,102850
2022-11-12T06:55:00.152Z,102850
2022-11-12T06:56:00.814Z,102850
2022-11-12T06:57:00.169Z,102850
2022-11-12T06:58:00.409Z,102850
2022-11-12T06:59:00.191Z,102850
2022-11-12T07:00:00.175Z,102850
2022-11-12T07:01:11.824Z,102850
2022-11-12T07:02:00.237Z,102850
2022-11-12T07:03:04.235Z,102850
2022-11-12T07:04:00.157Z,102850
2022-11-12T07:05:00.170Z,102860
2022-11-12T07:06:02.844Z,102860
2022-11-12T07:07:00.234Z,102860
2022-11-12T07:08:00.153Z,102860
2022-11-12T07:09:00.166Z,102850
2022-11-12T07:10:00.155Z,102850
2022-11-12T07:11:00.318Z,102850
2022-11-12T07:12:00.153Z,102850
2022-11-12T07:13:00.167Z,102860
2022-11-12T07:14:00.156Z,102860
2022-11-12T07:15:00.150Z,102860
2022-11-12T07:16:00.775Z,102860
2022-11-12T07:17:00.156Z,102860
2022-11-12T07:18:00.170Z,102860
2022-11-12T07:19:00.162Z,102860
2022-11-12T07:20:03.638Z,102860
2022-11-12T07:21:01.087Z,102860
2022-11-12T07:22:00.158Z,102860
2022-11-12T07:23:00.313Z,102860
2022-11-12T07:24:00.158Z,102860
2022-11-12T07:25:00.155Z,102860
2022-11-12T07:26:01.979Z,102860
2022-11-12T07:27:00.156Z,102860
2022-11-12T07:28:00.157Z,102860
2022-11-12T07:29:00.160Z,102870
2022-11-12T07:30:00.177Z,102870
2022-11-12T07:31:01.813Z,102870
2022-11-12T07:32:00.188Z,102870
2022-11-12T07:33:00.160Z,102870
2022-11-12T07:34:00.151Z,102870
2022-11-12T07:35:00.158Z,102870
2022-11-12T07:36:01.344Z,102870
2022-11-12T07:37:00.148Z,102870
2022-11-12T07:38:00.153Z,102870
2022-11-12T07:39:00.153Z,102870
2022-11-12T07:40:00.167Z,102870
2022-11-12T07:41:04.524Z,102870
2022-11-12T07:42:00.153Z,102870
2022-11-12T07:43:00.158Z,102870
2022-11-12T07:44:00.341Z,102870
2022-11-12T07:45:00.472Z,102880
2022-11-12T07:46:04.748Z,102880
2022-11-12T07:47:00.161Z,102870
2022-11-12T07:48:00.155Z,102870
2022-11-12T07:49:00.226Z,102880
2022-11-12T07:50:00.175Z,102880
2022-11-12T07:51:01.387Z,102880
2022-11-12T07:52:00.153Z,102880
2022-11-12T07:53:00.150Z,102880
2022-11-12T07:54:00.245Z,102880
2022-11-12T07:55:00.150Z,102880
2022-11-12T07:56:00.935Z,102880
2022-11-12T07:57:00.212Z,102880
2022-11-12T07:58:00.234Z,102880
2022-11-12T07:59:00.225Z,102880
2022-11-12T08:00:00.170Z,102880
2022-11-12T08:01:08.615Z,102880
2022-11-12T08:02:00.236Z,102880
2022-11-12T08:03:00.163Z,102890
2022-11-12T08:04:01.077Z,102890
2022-11-12T08:05:00.160Z,102890
2022-11-12T08:06:00.231Z,102890
2022-11-12T08:07:00.247Z,102890
2022-11-12T08:08:00.284Z,102890
2022-11-12T08:09:01.018Z,102890
2022-11-12T08:10:00.154Z,102890
2022-11-12T08:11:00.161Z,102890
2022-11-12T08:12:00.149Z,102890
2022-11-12T08:13:00.151Z,102890
2022-11-12T08:14:00.486Z,102890
2022-11-12T08:15:00.151Z,102890
2022-11-12T08:16:00.182Z,102890
2022-11-12T08:17:00.152Z,102890
2022-11-12T08:18:00.162Z,102890
2022-11-12T08:19:00.493Z,102890
2022-11-12T08:20:00.158Z,102890
2022-11-12T08:21:00.880Z,102900
2022-11-12T08:22:00.184Z,102900
2022-11-12T08:23:00.176Z,102900
2022-11-12T08:24:00.154Z,102900
2022-11-12T08:25:00.167Z,102900
2022-11-12T08:26:01.099Z,102900
2022-11-12T08:27:00.178Z,102900
2022-11-12T08:28:00.160Z,102900
2022-11-12T08:29:05.330Z,102900
2022-11-12T08:30:00.259Z,102900
2022-11-12T08:31:06.359Z,102900
2022-11-12T08:32:00.157Z,102900
2022-11-12T08:33:01.356Z,102900
2022-11-12T08:34:00.253Z,102900
2022-11-12T08:35:00.228Z,102900
2022-11-12T08:36:01.998Z,102900
2022-11-12T08:37:00.151Z,102900
2022-11-12T08:38:01.319Z,102900
2022-11-12T08:39:00.148Z,102900
2022-11-12T08:40:00.179Z,102900
2022-11-12T08:41:02.089Z,102900
2022-11-12T08:42:00.174Z,102900
2022-11-12T08:43:01.001Z,102900
2022-11-12T08:44:05.543Z,102900
2022-11-12T08:45:00.146Z,102900
2022-11-12T08:46:00.643Z,102900
2022-11-12T08:47:00.167Z,102900
2022-11-12T08:48:00.863Z,102900
2022-11-12T08:49:00.185Z,102900
2022-11-12T08:50:00.157Z,102900
2022-11-12T08:51:01.289Z,102910
2022-11-12T08:52:00.157Z,102910
2022-11-12T08:53:00.904Z,102910
2022-11-12T08:54:00.181Z,102910
2022-11-12T08:55:00.160Z,102910
2022-11-12T08:56:00.187Z,102910
2022-11-12T08:57:00.148Z,102910
2022-11-12T08:58:00.811Z,102910
2022-11-12T08:59:03.764Z,102920
2022-11-12T09:00:00.188Z,102920
2022-11-12T09:01:04.579Z,102910
2022-11-12T09:02:00.268Z,102910
2022-11-12T09:03:01.065Z,102910
2022-11-12T09:04:00.151Z,102910
2022-11-12T09:05:00.204Z,102910
2022-11-12T09:06:01.784Z,102910
2022-11-12T09:07:00.228Z,102910
2022-11-12T09:08:01.527Z,102910
2022-11-12T09:09:00.160Z,102910
2022-11-12T09:10:00.156Z,102910
2022-11-12T09:11:00.164Z,102910
2022-11-12T09:12:03.061Z,102910
2022-11-12T09:13:00.486Z,102900
2022-11-12T09:14:00.266Z,102900
2022-11-12T09:15:30.792Z,102900
2022-11-12T09:16:01.186Z,102900
2022-11-12T09:17:00.156Z,102900
2022-11-12T09:18:01.322Z,102900
2022-11-12T09:19:00.199Z,102910
2022-11-12T09:20:00.161Z,102910
2022-11-12T09:21:01.142Z,102910
2022-11-12T09:22:00.163Z,102910
2022-11-12T09:23:01.441Z,102910
2022-11-12T09:24:00.160Z,102910
2022-11-12T09:25:00.161Z,102910
2022-11-12T09:26:00.192Z,102910
2022-11-12T09:27:00.177Z,102920
2022-11-12T09:28:08.862Z,102920
2022-11-12T09:29:00.236Z,102910
2022-11-12T09:30:00.172Z,102910
2022-11-12T09:31:00.700Z,102910
2022-11-12T09:32:00.150Z,102910
2022-11-12T09:33:00.154Z,102910
2022-11-12T09:34:00.152Z,102910
2022-11-12T09:35:00.285Z,102910
2022-11-12T09:36:00.895Z,102910
2022-11-12T09:37:00.152Z,102910
2022-11-12T09:38:00.208Z,102910
2022-11-12T09:39:00.196Z,102910
2022-11-12T09:40:00.163Z,102910
2022-11-12T09:41:10.096Z,102910
2022-11-12T09:42:05.420Z,102910
2022-11-12T09:43:07.941Z,102910
2022-11-12T09:44:10.098Z,102910
2022-11-12T09:45:05.486Z,102910
2022-11-12T09:47:03.740Z,102910
2022-11-12T09:48:05.734Z,102910
2022-11-12T09:49:04.220Z,102910
2022-11-12T09:50:00.142Z,102910
2022-11-12T09:51:05.356Z,102910
2022-11-12T09:52:02.166Z,102910
2022-11-12T09:53:10.097Z,102900
2022-11-12T09:54:04.810Z,102900
2022-11-12T09:55:06.335Z,102900
2022-11-12T09:56:04.454Z,102900
2022-11-12T09:57:00.462Z,102900
2022-11-12T09:58:00.256Z,102900
2022-11-12T09:59:00.158Z,102900
2022-11-12T10:00:00.193Z,102900
2022-11-12T10:01:02.656Z,102900
2022-11-12T10:02:01.257Z,102900
2022-11-12T10:03:05.234Z,102900
2022-11-12T10:04:10.100Z,102900
2022-11-12T10:05:10.099Z,102900
2022-11-12T10:06:08.568Z,102900
2022-11-12T10:07:08.046Z,102890
2022-11-12T10:08:00.142Z,102890
2022-11-12T10:09:04.148Z,102900
2022-11-12T10:10:02.616Z,102900
2022-11-12T10:11:09.376Z,102890
2022-11-12T10:12:10.097Z,102890
2022-11-12T10:13:00.145Z,102890
2022-11-12T10:14:09.674Z,102890
2022-11-12T10:15:00.140Z,102890
2022-11-12T10:16:10.092Z,102890
2022-11-12T10:17:07.553Z,102890
2022-11-12T10:18:00.133Z,102890
2022-11-12T10:19:01.154Z,102880
2022-11-12T10:20:10.095Z,102880
2022-11-12T10:21:07.311Z,102880
2022-11-12T10:22:10.091Z,102880
2022-11-12T10:23:10.093Z,102880
2022-11-12T10:24:00.337Z,102880
2022-11-12T10:25:10.098Z,102880
2022-11-12T10:26:08.345Z,102880
2022-11-12T10:27:01.516Z,102880
2022-11-12T10:28:01.254Z,102880
2022-11-12T10:29:06.299Z,102880
2022-11-12T10:30:02.390Z,102880
2022-11-12T10:31:05.116Z,102870
2022-11-12T10:32:00.529Z,102870
2022-11-12T10:33:00.155Z,102870
2022-11-12T10:34:10.093Z,102870
2022-11-12T10:35:00.150Z,102870
2022-11-12T10:36:10.094Z,102870
2022-11-12T10:37:10.092Z,102870
2022-11-12T10:38:03.223Z,102870
2022-11-12T10:39:00.403Z,102870
2022-11-12T10:40:10.095Z,102870
2022-11-12T10:41:10.897Z,102870
2022-11-12T10:42:02.327Z,102870
2022-11-12T10:43:04.927Z,102870
2022-11-12T10:44:01.333Z,102870
2022-11-12T10:45:10.095Z,102860
2022-11-12T10:46:10.097Z,102860
2022-11-12T10:47:10.091Z,102860
2022-11-12T10:48:00.221Z,102860
2022-11-12T10:49:01.801Z,102860
2022-11-12T10:50:09.703Z,102860
2022-11-12T10:51:00.155Z,102850
2022-11-12T10:52:00.163Z,102850
2022-11-12T10:53:01.689Z,102860
2022-11-12T10:54:10.093Z,102860
2022-11-12T10:55:03.806Z,102860
2022-11-12T10:56:01.597Z,102860
2022-11-12T10:57:10.094Z,102850
2022-11-12T10:58:04.419Z,102850
2022-11-12T10:59:10.091Z,102850
2022-11-12T11:00:10.106Z,102850
2022-11-12T11:01:00.133Z,102850
2022-11-12T11:02:00.256Z,102850
2022-11-12T11:03:01.460Z,102850
2022-11-12T11:04:00.252Z,102850
2022-11-12T11:05:10.099Z,102840
2022-11-12T11:06:04.852Z,102840
2022-11-12T11:07:10.103Z,102850
2022-11-12T11:08:00.861Z,102850
2022-11-12T11:09:10.093Z,102840
2022-11-12T11:10:00.171Z,102840
2022-11-12T11:11:10.085Z,102840
2022-11-12T11:12:00.182Z,102840
2022-11-12T11:13:10.091Z,102850
2022-11-12T11:14:10.090Z,102850
2022-11-12T11:15:05.522Z,102840
2022-11-12T11:16:04.766Z,102840
2022-11-12T11:17:01.799Z,102830
2022-11-12T11:18:00.325Z,102830
2022-11-12T11:19:02.799Z,102830
2022-11-12T11:20:00.314Z,102830
2022-11-12T11:21:10.090Z,102840
2022-11-12T11:22:05.666Z,102840
2022-11-12T11:23:05.852Z,102830
2022-11-12T11:24:03.420Z,102830
2022-11-12T11:25:01.151Z,102830
2022-11-12T11:26:05.971Z,102830
2022-11-12T11:27:03.843Z,102830
2022-11-12T11:28:03.411Z,102830
2022-11-12T11:29:10.096Z,102830
2022-11-12T11:30:03.167Z,102830
2022-11-12T11:31:05.682Z,102830
2022-11-12T11:32:07.635Z,102830
2022-11-12T11:33:10.096Z,102830
2022-11-12T11:34:10.097Z,102830
2022-11-12T11:35:10.101Z,102830
2022-11-12T11:36:10.094Z,102830
2022-11-12T11:37:10.093Z,102820
2022-11-12T11:38:06.636Z,102820
2022-11-12T11:39:02.577Z,102820
2022-11-12T11:40:09.504Z,102820
2022-11-12T11:41:00.140Z,102820
2022-11-12T11:42:10.087Z,102820
2022-11-12T11:43:10.092Z,102820
2022-11-12T11:44:13.941Z,102820
2022-11-12T11:45:05.847Z,102820
2022-11-12T11:46:01.159Z,102820
2022-11-12T11:47:10.101Z,102820
2022-11-12T11:48:10.090Z,102820
2022-11-12T11:49:00.135Z,102820
2022-11-12T11:50:10.103Z,102820
2022-11-12T11:51:10.094Z,102810
2022-11-12T11:52:05.427Z,102810
2022-11-12T11:53:04.758Z,102810
2022-11-12T11:54:10.096Z,102810
2022-11-12T11:55:08.131Z,102810
2022-11-12T11:56:02.117Z,102810
2022-11-12T11:57:02.622Z,102810
2022-11-12T11:58:03.400Z,102810
2022-11-12T11:59:01.151Z,102800
2022-11-12T12:00:03.531Z,102800
2022-11-12T12:01:01.156Z,102810
2022-11-12T12:02:03.406Z,102810
2022-11-12T12:03:10.152Z,102800
2022-11-12T12:04:10.102Z,102800
2022-11-12T12:05:10.101Z,102800
2022-11-12T12:06:06.334Z,102800
2022-11-12T12:07:08.600Z,102800
2022-11-12T12:08:00.135Z,102800
2022-11-12T12:09:10.101Z,102800
2022-11-12T12:10:10.100Z,102800
2022-11-12T12:11:10.092Z,102810
2022-11-12T12:12:01.160Z,102810
2022-11-12T12:13:08.428Z,102810
2022-11-12T12:14:10.132Z,102810
2022-11-12T12:15:00.139Z,102810
2022-11-12T12:16:00.133Z,102810
2022-11-12T12:17:00.137Z,102800
2022-11-12T12:18:07.471Z,102800
2022-11-12T12:19:03.401Z,102800
2022-11-12T12:20:04.146Z,102800
2022-11-12T12:21:10.091Z,102810
2022-11-12T12:22:02.117Z,102810
2022-11-12T12:23:10.097Z,102800
2022-11-12T12:24:02.051Z,102800
2022-11-12T12:25:04.834Z,102790
2022-11-12T12:26:01.844Z,102790
2022-11-12T12:27:10.095Z,102780
2022-11-12T12:28:04.676Z,102780
2022-11-12T12:29:06.528Z,102780